Time;durP1;ratioP1;P1;durP2;ratioP2;P2;SDS_P1;SDS_P2;PMS_P1;PMS_P2;Temp;Humidity;BMP_temperature;BMP_pressure;BME280_temperature;BME280_humidity;BME280_pressure;Samples;Min_cycle;Max_cycle;Signal;HPM_P1;HPM_P2
2021/11/25 00:01:43;;;;;;;;;;;;;;;3.76;62.45;101024.67;1663352;84;21035;-63
2021/11/25 00:04:10;;;;;;;13.23;9.73;;;;;;;3.76;62.49;101028.62;1673147;84;20138;-63
2021/11/25 00:06:36;;;;;;;12.28;10.85;;;;;;;3.69;62.56;101028.28;1650355;85;21592;-63
2021/11/25 00:09:05;;;;;;;16.43;11.33;;;;;;;3.67;62.77;101023.16;1661364;84;21052;-65
2021/11/25 00:11:31;;;;;;;13.83;11.53;;;;;;;3.68;62.80;101021.35;1679014;84;21045;-62
2021/11/25 00:13:59;;;;;;;12.70;11.13;;;;;;;3.70;62.68;101022.06;1660301;84;21141;-63
2021/11/25 00:16:26;;;;;;;14.53;11.13;;;;;;;3.72;62.64;101023.25;1656410;84;21092;-63
2021/11/25 00:18:53;;;;;;;12.82;11.33;;;;;;;3.78;62.64;101025.38;1667885;84;21134;-63
2021/11/25 00:21:19;;;;;;;;;;;;;;;3.88;62.43;101019.22;1673414;84;21049;-63
2021/11/25 00:23:49;;;;;;;12.57;9.67;;;;;;;3.96;62.24;101016.42;1664976;81;20145;-65
2021/11/25 00:26:19;;;;;;;13.20;10.93;;;;;;;3.97;62.22;101022.86;1657074;84;21009;-66
2021/11/25 00:28:46;;;;;;;13.80;11.67;;;;;;;4.01;62.06;101021.67;1671826;84;21616;-61
2021/11/25 00:31:12;;;;;;;;;;;;;;;3.99;62.21;101024.89;1669408;84;21006;-61
2021/11/25 00:33:39;;;;;;;14.37;11.30;;;;;;;4.01;62.23;101018.17;1658562;84;20231;-63
2021/11/25 00:36:06;;;;;;;11.37;10.17;;;;;;;3.97;62.32;101016.27;1660417;84;21134;-62
2021/11/25 00:38:33;;;;;;;30.87;12.80;;;;;;;3.99;62.38;101017.47;1672680;84;21079;-62
2021/11/25 00:41:00;;;;;;;13.28;11.88;;;;;;;3.97;62.45;101014.95;1665376;84;21562;-62
2021/11/25 00:43:26;;;;;;;14.30;11.87;;;;;;;3.96;62.50;101015.94;1662219;84;21131;-63
2021/11/25 00:45:54;;;;;;;12.47;11.00;;;;;;;3.97;62.46;101016.27;1674776;84;20974;-61
2021/11/25 00:48:21;;;;;;;16.23;13.38;;;;;;;4.00;62.47;101020.47;1659994;84;21161;-60
2021/11/25 00:50:49;;;;;;;13.83;12.33;;;;;;;4.00;62.45;101017.34;1669275;84;21142;-61
2021/11/25 00:53:16;;;;;;;16.17;13.27;;;;;;;3.99;62.52;101013.02;1677149;84;21601;-61
2021/11/25 00:55:43;;;;;;;16.40;12.93;;;;;;;4.00;62.65;101013.39;1677858;83;21344;-62
2021/11/25 00:58:10;;;;;;;15.97;14.03;;;;;;;3.99;62.62;101013.02;1627251;87;21057;-61
2021/11/25 01:00:39;;;;;;;16.03;11.77;;;;;;;4.00;62.66;101011.24;1634918;86;21440;-59
2021/11/25 01:03:07;;;;;;;15.83;13.37;;;;;;;4.02;62.62;101006.18;1642007;86;21624;-62
2021/11/25 01:05:35;;;;;;;16.07;13.20;;;;;;;4.12;62.30;101009.36;1641029;86;21063;-61
2021/11/25 01:08:03;;;;;;;14.27;11.93;;;;;;;4.15;62.12;101009.11;1639580;86;21128;-61
2021/11/25 01:10:30;;;;;;;13.80;12.33;;;;;;;4.12;62.32;101009.36;1632412;86;21055;-65
2021/11/25 01:12:59;;;;;;;13.83;12.33;;;;;;;4.06;62.42;101000.98;1635631;86;21060;-64
2021/11/25 01:15:30;;;;;;;17.53;13.90;;;;;;;4.04;62.55;101000.29;1630139;86;21062;-65
2021/11/25 01:18:03;;;;;;;14.60;12.43;;;;;;;4.03;62.67;100998.63;1638146;86;21082;-63
2021/11/25 01:20:31;;;;;;;15.27;12.00;;;;;;;4.02;62.76;100999.58;1657886;85;21140;-65
2021/11/25 01:23:00;;;;;;;16.73;13.23;;;;;;;4.02;62.87;101002.22;1683236;83;21964;-66
2021/11/25 01:25:27;;;;;;;16.37;11.93;;;;;;;4.02;62.99;100998.27;1678749;83;21132;-64
2021/11/25 01:27:55;;;;;;;15.50;12.83;;;;;;;4.04;62.98;100996.33;1642931;85;21020;-64
2021/11/25 01:30:22;;;;;;;16.80;12.90;;;;;;;4.04;62.93;100994.19;1643237;85;21065;-64
2021/11/25 01:32:49;;;;;;;17.13;12.90;;;;;;;4.02;62.91;100992.98;1690228;83;21034;-64
2021/11/25 01:35:15;;;;;;;16.73;13.43;;;;;;;4.01;63.01;100990.48;1681225;83;20978;-64
2021/11/25 01:37:42;;;;;;;14.93;11.83;;;;;;;3.97;63.07;100989.06;1679200;83;21098;-64
2021/11/25 01:40:15;;;;;;;18.60;12.33;;;;;;;3.97;63.09;100994.34;1652165;85;21056;-63
2021/11/25 01:42:42;;;;;;;20.07;11.80;;;;;;;4.04;63.03;100990.23;1614407;86;21011;-63
2021/11/25 01:45:12;;;;;;;14.90;11.40;;;;;;;4.10;62.95;100983.93;1679702;83;21037;-64
2021/11/25 01:47:44;;;;;;;18.10;13.13;;;;;;;4.13;62.84;100982.02;1679945;83;21070;-64
2021/11/25 01:50:14;;;;;;;15.70;12.37;;;;;;;4.10;62.75;100988.38;1690337;83;21306;-63
2021/11/25 01:52:41;;;;;;;14.37;12.73;;;;;;;4.06;62.77;100993.08;1679711;83;21397;-64
2021/11/25 01:55:10;;;;;;;16.50;12.97;;;;;;;4.04;62.87;100993.69;1689714;83;21144;-66
2021/11/25 01:57:37;;;;;;;14.87;12.60;;;;;;;4.00;62.85;100994.09;1676980;83;21540;-65
2021/11/25 02:00:16;;;;;;;17.57;12.70;;;;;;;3.97;63.13;100987.75;1685486;83;21545;-66
2021/11/25 02:02:44;;;;;;;16.47;13.87;;;;;;;3.94;63.17;100991.49;1685819;83;21082;-63
2021/11/25 02:05:11;;;;;;;17.37;13.73;;;;;;;3.92;63.42;100991.25;1683344;83;21089;-64
2021/11/25 02:07:38;;;;;;;18.03;14.60;;;;;;;3.91;63.55;100986.47;1688955;83;21065;-64
2021/11/25 02:10:07;;;;;;;17.00;13.70;;;;;;;3.89;63.58;100986.59;1691392;83;21065;-63
2021/11/25 02:12:34;;;;;;;18.07;14.27;;;;;;;3.88;63.60;100984.93;1684013;83;21018;-62
2021/11/25 02:15:01;;;;;;;;;;;;;;;3.86;63.74;100986.86;1703831;83;21034;-63
2021/11/25 02:17:27;;;;;;;17.70;13.97;;;;;;;3.89;63.73;100987.08;1692540;83;20146;-64
2021/11/25 02:19:55;;;;;;;21.42;15.10;;;;;;;3.85;63.79;100986.50;1689986;83;21060;-64
2021/11/25 02:22:22;;;;;;;20.63;15.90;;;;;;;3.81;63.94;100988.22;1662970;84;21100;-64
2021/11/25 02:24:51;;;;;;;19.02;15.63;;;;;;;3.78;64.07;100985.33;1701358;83;21082;-65
2021/11/25 02:27:20;;;;;;;20.43;16.20;;;;;;;3.77;64.16;100990.73;1698695;83;21025;-65
2021/11/25 02:29:49;;;;;;;21.57;15.87;;;;;;;3.75;64.21;100991.34;1682798;83;21077;-64
2021/11/25 02:32:35;;;;;;;20.47;15.70;;;;;;;3.75;64.28;100983.43;1696695;83;21108;-65
2021/11/25 02:35:05;;;;;;;19.50;15.07;;;;;;;3.75;64.39;100990.02;1686636;83;21285;-63
2021/11/25 02:37:32;;;;;;;21.50;16.13;;;;;;;3.74;64.47;100989.69;1696625;83;21022;-62
2021/11/25 02:39:59;;;;;;;21.90;15.20;;;;;;;3.73;64.58;100989.31;1699302;83;21030;-65
2021/11/25 02:42:25;;;;;;;18.50;15.20;;;;;;;3.77;64.56;100987.62;1678726;83;20998;-64
2021/11/25 02:44:51;;;;;;;;;;;;;;;3.82;64.51;100985.91;1691444;84;21025;-64
2021/11/25 02:47:18;;;;;;;22.20;15.33;;;;;;;3.81;64.51;100984.26;1702210;83;20558;-65
2021/11/25 02:49:45;;;;;;;23.02;14.90;;;;;;;3.70;64.80;100982.02;1703975;83;21073;-64
2021/11/25 02:52:11;;;;;;;;;;;;;;;3.67;65.00;100980.97;1686941;83;21491;-63
2021/11/25 02:54:43;;;;;;;17.50;14.13;;;;;;;3.66;65.11;100977.14;1681853;83;20156;-64
2021/11/25 02:57:11;;;;;;;23.53;15.07;;;;;;;3.61;65.29;100981.46;1696522;83;21108;-64
2021/11/25 02:59:37;;;;;;;18.12;15.40;;;;;;;3.62;65.36;100981.83;1699159;83;21065;-64
2021/11/25 03:02:03;;;;;;;16.37;13.75;;;;;;;3.64;65.36;100980.39;1694841;83;21014;-64
2021/11/25 03:04:30;;;;;;;;;;;;;;;3.68;65.37;100974.72;1693383;83;21061;-65
2021/11/25 03:06:57;;;;;;;15.97;12.70;;;;;;;3.79;65.15;100971.69;1701253;83;20169;-65
2021/11/25 03:09:23;;;;;;;18.73;14.40;;;;;;;3.80;65.14;100965.43;1695251;83;21046;-64
2021/11/25 03:11:53;;;;;;;19.20;14.95;;;;;;;3.81;65.11;100973.22;1700581;83;21018;-64
2021/11/25 03:14:19;;;;;;;20.03;14.90;;;;;;;3.79;65.12;100970.37;1701668;83;22150;-63
2021/11/25 03:16:47;;;;;;;18.23;14.97;;;;;;;3.78;65.25;100969.51;1690820;83;21637;-64
2021/11/25 03:19:14;;;;;;;17.70;15.77;;;;;;;3.78;65.31;100967.36;1702613;83;21006;-62
2021/11/25 03:21:40;;;;;;;19.17;15.30;;;;;;;3.77;65.37;100972.27;1703329;83;20978;-63
2021/11/25 03:24:07;;;;;;;26.55;17.85;;;;;;;3.76;65.52;100971.93;1701361;83;21422;-65
2021/11/25 03:26:34;;;;;;;18.65;14.85;;;;;;;3.74;65.66;100963.31;1703886;83;21496;-64
2021/11/25 03:29:03;;;;;;;21.63;16.03;;;;;;;3.74;65.67;100966.78;1700249;83;21078;-64
2021/11/25 03:31:33;;;;;;;19.13;14.57;;;;;;;3.79;65.66;100963.77;1691046;83;20970;-63
2021/11/25 03:34:02;;;;;;;21.63;15.37;;;;;;;3.85;65.57;100963.25;1694291;83;21151;-64
2021/11/25 03:36:31;;;;;;;18.10;14.70;;;;;;;3.87;65.61;100964.78;1694649;83;21131;-63
2021/11/25 03:38:58;;;;;;;17.77;15.07;;;;;;;3.85;65.76;100956.17;1693970;83;21087;-64
2021/11/25 03:41:25;;;;;;;18.43;14.17;;;;;;;3.83;65.77;100954.64;1698270;83;21073;-64
2021/11/25 03:43:52;;;;;;;21.70;16.60;;;;;;;3.84;65.84;100955.83;1688743;83;21093;-64
2021/11/25 03:46:18;;;;;;;20.55;16.02;;;;;;;3.81;65.88;100956.08;1680822;83;21375;-65
2021/11/25 03:48:46;;;;;;;18.23;14.90;;;;;;;3.79;65.96;100957.19;1698117;83;21045;-64
2021/11/25 03:51:13;;;;;;;20.12;15.55;;;;;;;3.77;66.09;100960.40;1691453;83;21038;-64
2021/11/25 03:53:43;;;;;;;17.67;14.10;;;;;;;3.81;66.06;100952.61;1694394;83;21549;-63
2021/11/25 03:56:12;;;;;;;17.37;14.30;;;;;;;3.90;65.94;100965.02;1689030;83;21593;-63
2021/11/25 03:58:39;;;;;;;19.57;16.90;;;;;;;3.93;65.85;100963.43;1637233;86;21022;-63
2021/11/25 04:01:06;;;;;;;19.57;16.20;;;;;;;3.90;65.85;100959.75;1637295;86;21030;-66
2021/11/25 04:03:34;;;;;;;17.90;13.77;;;;;;;3.87;65.96;100957.36;1625302;85;21477;-65
2021/11/25 04:06:02;;;;;;;18.07;14.90;;;;;;;3.86;66.07;100953.90;1641787;86;20977;-62
2021/11/25 04:08:30;;;;;;;19.03;15.93;;;;;;;3.86;66.02;100956.99;1639699;85;21074;-64
2021/11/25 04:10:58;;;;;;;19.57;15.43;;;;;;;3.85;66.11;100955.34;1643965;85;21477;-63
2021/11/25 04:13:25;;;;;;;20.50;15.87;;;;;;;3.83;66.15;100954.14;1642270;86;21481;-65
2021/11/25 04:15:53;;;;;;;21.83;15.63;;;;;;;3.87;66.05;100954.72;1667459;84;21553;-64
2021/11/25 04:18:19;;;;;;;17.07;13.80;;;;;;;3.98;65.86;100953.83;1656316;84;21061;-64
2021/11/25 04:20:46;;;;;;;18.77;15.63;;;;;;;4.01;65.74;100949.13;1660582;84;21192;-64
2021/11/25 04:23:13;;;;;;;20.13;14.73;;;;;;;4.00;65.87;100954.03;1665726;84;21001;-63
2021/11/25 04:25:40;;;;;;;18.85;15.50;;;;;;;4.00;65.95;100955.84;1636712;86;21050;-64
2021/11/25 04:28:08;;;;;;;24.63;17.37;;;;;;;3.98;65.91;100945.91;1636544;86;21112;-63
2021/11/25 04:37:07;;;;;;;20.87;16.33;;;;;;;3.97;65.91;100952.14;1685582;83;21933;-64
2021/11/25 04:39:34;;;;;;;20.13;17.63;;;;;;;3.96;66.09;100951.80;1693855;83;21081;-64
2021/11/25 04:42:02;;;;;;;22.65;17.65;;;;;;;3.95;66.15;100948.30;1696873;83;21367;-64
2021/11/25 04:44:29;;;;;;;18.07;15.07;;;;;;;4.00;66.05;100951.89;1691859;83;21033;-65
2021/11/25 04:46:55;;;;;;;25.52;15.28;;;;;;;4.11;65.89;100953.13;1669664;84;20985;-65
2021/11/25 04:49:22;;;;;;;19.57;15.38;;;;;;;4.18;65.68;100959.56;1662233;84;20953;-65
2021/11/25 04:51:49;;;;;;;19.03;14.97;;;;;;;4.22;65.52;100958.78;1674154;84;21548;-64
2021/11/25 04:54:15;;;;;;;20.10;15.95;;;;;;;4.17;65.50;100947.81;1657946;84;21555;-65
2021/11/25 04:56:41;;;;;;;;;;;;;;;4.10;65.71;100943.03;1644471;83;22161;-65
2021/11/25 04:59:08;;;;;;;21.40;16.90;;;;;;;4.08;65.98;100945.47;1621860;86;20199;-67
2021/11/25 05:01:35;;;;;;;;;;;;;;;4.00;66.08;100942.16;1632778;85;21029;-64
2021/11/25 05:04:01;;;;;;;22.77;16.97;;;;;;;3.97;66.20;100938.45;1648687;85;20459;-65
2021/11/25 05:06:28;;;;;;;20.37;17.23;;;;;;;3.91;66.39;100938.98;1644470;85;20994;-67
2021/11/25 05:08:55;;;;;;;55.80;34.80;;;;;;;3.89;66.62;100933.02;1657438;85;21081;-63
2021/11/25 05:11:21;;;;;;;123.15;72.62;;;;;;;3.90;67.15;100934.20;1652397;84;20981;-65
2021/11/25 05:13:48;;;;;;;59.17;36.77;;;;;;;4.02;67.14;100939.40;1677321;84;21712;-63
2021/11/25 05:16:14;;;;;;;30.43;21.50;;;;;;;4.16;66.81;100930.30;1676492;83;22114;-64
2021/11/25 05:18:42;;;;;;;29.10;18.32;;;;;;;4.16;66.81;100930.30;1671967;84;21106;-64
2021/11/25 05:21:10;;;;;;;21.30;16.47;;;;;;;4.15;66.12;100933.92;1675081;84;21227;-63
2021/11/25 05:23:37;;;;;;;22.20;17.57;;;;;;;4.11;66.13;100937.30;1663338;85;21029;-64
2021/11/25 05:26:04;;;;;;;20.67;16.30;;;;;;;4.05;66.27;100934.70;1644641;85;21074;-65
2021/11/25 05:28:31;;;;;;;20.17;16.70;;;;;;;4.03;66.33;100934.00;1647419;85;21536;-64
2021/11/25 05:30:57;;;;;;;21.87;17.67;;;;;;;4.01;66.36;100932.44;1656429;85;21067;-65
2021/11/25 05:33:24;;;;;;;20.02;15.78;;;;;;;4.00;66.46;100938.70;1646184;85;21052;-65
2021/11/25 05:35:50;;;;;;;20.00;16.50;;;;;;;4.02;66.48;100934.95;1680778;83;20982;-64
2021/11/25 05:38:17;;;;;;;22.98;18.57;;;;;;;4.12;66.29;100933.67;1675397;83;21591;-64
2021/11/25 05:40:45;;;;;;;21.80;17.10;;;;;;;4.10;66.16;100934.30;1690952;83;21495;-65
2021/11/25 05:43:11;;;;;;;25.10;17.80;;;;;;;4.07;66.23;100940.68;1666145;83;21121;-65
2021/11/25 05:45:38;;;;;;;21.07;17.07;;;;;;;4.06;66.36;100942.95;1703838;82;20986;-63
2021/11/25 05:48:05;;;;;;;21.70;17.20;;;;;;;4.07;66.37;100946.45;1715730;82;21118;-65
2021/11/25 05:50:33;;;;;;;23.47;17.80;;;;;;;4.08;66.38;100936.23;1703260;83;21084;-65
2021/11/25 05:52:59;;;;;;;22.73;17.00;;;;;;;4.06;66.47;100932.89;1715950;82;21126;-65
2021/11/25 05:55:29;;;;;;;23.60;16.90;;;;;;;4.03;66.60;100934.00;1686995;82;21017;-64
2021/11/25 05:57:57;;;;;;;20.90;15.17;;;;;;;4.07;66.57;100933.26;1629463;85;21085;-65
2021/11/25 06:00:24;;;;;;;22.17;15.67;;;;;;;4.19;66.34;100940.59;1638307;82;21681;-65
2021/11/25 06:02:50;;;;;;;;;;;;;;;4.20;66.21;100942.25;1734477;81;21415;-65
2021/11/25 06:05:20;;;;;;;25.20;17.07;;;;;;;4.16;66.31;100943.48;1727062;81;20470;-64
2021/11/25 06:07:47;;;;;;;21.17;17.77;;;;;;;4.07;66.48;100935.41;1702435;82;21054;-65
2021/11/25 06:10:17;;;;;;;21.73;17.23;;;;;;;4.05;66.61;100943.94;1710729;82;21026;-65
2021/11/25 06:12:44;;;;;;;23.00;18.40;;;;;;;4.04;66.77;100940.10;1699524;82;21010;-65
2021/11/25 06:15:13;;;;;;;25.23;18.83;;;;;;;4.02;66.76;100936.27;1678197;84;21541;-65
2021/11/25 06:17:40;;;;;;;24.97;17.60;;;;;;;4.00;66.82;100943.48;1700033;82;21106;-66
2021/11/25 06:20:12;;;;;;;23.70;17.10;;;;;;;4.05;66.79;100939.12;1708445;82;21518;-65
2021/11/25 06:22:42;;;;;;;27.83;18.27;;;;;;;4.07;66.76;100939.36;1707250;82;21612;-66
2021/11/25 06:25:11;;;;;;;25.70;18.33;;;;;;;4.07;66.87;100939.85;1712709;82;20984;-66
2021/11/25 06:27:38;;;;;;;26.73;18.87;;;;;;;4.06;67.06;100943.45;1680396;82;21661;-67
2021/11/25 06:30:09;;;;;;;27.03;18.03;;;;;;;4.02;66.96;100940.23;1711889;82;21023;-65
2021/11/25 06:32:37;;;;;;;29.03;19.40;;;;;;;4.00;67.02;100943.98;1706140;82;21038;-66
2021/11/25 06:35:09;;;;;;;27.40;18.90;;;;;;;3.99;67.08;100938.33;1670554;84;21050;-63
2021/11/25 06:37:47;;;;;;;22.47;16.77;;;;;;;4.03;67.06;100946.33;1662160;84;21056;-64
2021/11/25 06:40:16;;;;;;;24.63;18.13;;;;;;;4.08;67.01;100942.83;1650965;84;21027;-63
2021/11/25 06:42:43;;;;;;;25.37;19.17;;;;;;;4.08;66.92;100942.83;1662954;84;21079;-62
2021/11/25 06:45:11;;;;;;;24.27;17.52;;;;;;;4.03;67.15;100941.91;1674458;83;21596;-62
2021/11/25 06:47:38;;;;;;;35.33;21.00;;;;;;;4.05;67.30;100942.62;1687687;83;21097;-63
2021/11/25 06:50:08;;;;;;;39.30;20.63;;;;;;;4.02;67.25;100942.04;1679624;83;21390;-62
2021/11/25 06:52:36;;;;;;;28.17;19.20;;;;;;;3.98;67.42;100936.68;1686474;83;21025;-63
2021/11/25 06:55:05;;;;;;;24.93;18.87;;;;;;;3.99;67.51;100940.48;1687190;83;21068;-61
2021/11/25 06:57:32;;;;;;;35.43;22.93;;;;;;;4.09;67.42;100944.52;1655771;83;21006;-61
2021/11/25 06:59:58;;;;;;;32.65;22.67;;;;;;;4.14;67.37;100937.51;1689753;83;21515;-62
2021/11/25 07:02:25;;;;;;;40.43;25.67;;;;;;;4.12;67.45;100942.08;1675381;84;21534;-64
2021/11/25 07:04:53;;;;;;;49.30;27.77;;;;;;;4.08;67.50;100938.87;1675040;84;21357;-63
2021/11/25 07:07:20;;;;;;;40.13;25.90;;;;;;;4.03;67.63;100940.59;1682678;84;21149;-62
2021/11/25 07:09:47;;;;;;;35.30;24.97;;;;;;;3.95;67.96;100938.25;1686689;84;21111;-63
2021/11/25 07:12:13;;;;;;;32.85;21.65;;;;;;;3.92;68.23;100940.67;1688566;82;20966;-63
2021/11/25 07:14:40;;;;;;;35.30;22.67;;;;;;;3.96;68.13;100942.57;1691175;83;21114;-62
2021/11/25 07:17:07;;;;;;;30.88;21.65;;;;;;;3.99;68.09;100939.16;1706707;82;21070;-63
2021/11/25 07:19:33;;;;;;;29.90;21.27;;;;;;;4.01;68.06;100945.17;1711438;82;21612;-62
2021/11/25 07:22:00;;;;;;;31.23;20.33;;;;;;;3.98;68.10;100945.91;1684801;83;21003;-61
2021/11/25 07:24:26;;;;;;;29.48;21.15;;;;;;;3.96;68.18;100942.57;1702114;82;21021;-62
2021/11/25 07:26:53;;;;;;;30.37;23.32;;;;;;;3.95;68.14;100947.48;1698053;83;21059;-65
2021/11/25 07:29:19;;;;;;;37.20;21.55;;;;;;;3.96;68.03;100942.08;1695756;83;21022;-63
2021/11/25 07:31:46;;;;;;;38.00;21.37;;;;;;;3.97;68.14;100949.01;1701519;83;21007;-64
2021/11/25 07:34:13;;;;;;;36.47;20.90;;;;;;;4.05;67.97;100950.99;1650351;83;21120;-64
2021/11/25 07:36:40;;;;;;;29.57;21.43;;;;;;;4.15;67.66;100950.58;1699726;83;21042;-62
2021/11/25 07:39:06;;;;;;;;;;;;;;;4.17;67.48;100950.45;1694969;83;21014;-61
2021/11/25 07:41:33;;;;;;;29.80;20.15;;;;;;;4.14;67.53;100950.20;1704744;83;20440;-63
2021/11/25 07:44:01;;;;;;;29.15;19.77;;;;;;;3.93;67.73;100925.19;1700183;83;21534;-63
2021/11/25 07:46:27;;;;;;;30.53;20.73;;;;;;;4.06;67.76;100952.19;1696189;83;21027;-65
2021/11/25 07:48:55;;;;;;;26.93;19.25;;;;;;;4.08;67.76;100951.56;1641584;85;21516;-64
2021/11/25 07:51:23;;;;;;;25.87;18.77;;;;;;;4.11;67.56;100945.22;1698222;83;21107;-63
2021/11/25 07:53:49;;;;;;;30.63;22.27;;;;;;;4.16;67.41;100942.16;1705088;83;21150;-63
2021/11/25 07:56:16;;;;;;;26.68;20.62;;;;;;;4.22;67.47;100944.27;1700045;82;21089;-62
2021/11/25 07:58:43;;;;;;;33.70;21.33;;;;;;;4.22;67.12;100943.80;1655753;86;21054;-62
2021/11/25 08:01:09;;;;;;;33.85;21.05;;;;;;;4.19;67.33;100945.87;1658249;86;21113;-62
2021/11/25 08:03:36;;;;;;;36.35;21.73;;;;;;;4.15;67.29;100941.83;1692728;82;21712;-61
2021/11/25 08:06:02;;;;;;;29.50;21.20;;;;;;;4.09;67.39;100938.74;1688779;82;21617;-65
2021/11/25 08:08:29;;;;;;;27.90;22.90;;;;;;;4.09;67.62;100933.95;1673285;82;21054;-64
2021/11/25 08:10:58;;;;;;;33.63;20.60;;;;;;;4.14;67.61;100937.51;1699312;82;21119;-63
2021/11/25 08:13:25;;;;;;;30.93;20.97;;;;;;;4.16;67.36;100939.03;1700302;82;21073;-64
2021/11/25 08:15:52;;;;;;;;;;;;;;;4.19;67.34;100938.78;1696430;82;21063;-63
2021/11/25 08:18:19;;;;;;;28.40;21.07;;;;;;;4.17;67.47;100938.08;1702694;82;20144;-63
2021/11/25 08:20:46;;;;;;;29.00;20.57;;;;;;;4.08;67.61;100937.06;1696183;82;21412;-64
2021/11/25 08:23:12;;;;;;;29.20;21.20;;;;;;;4.07;67.82;100935.89;1689853;82;21013;-66
2021/11/25 08:25:40;;;;;;;28.10;20.70;;;;;;;4.07;67.86;100935.41;1686052;83;21413;-63
2021/11/25 08:28:07;;;;;;;35.57;20.93;;;;;;;4.09;67.89;100939.23;1682750;83;21545;-63
2021/11/25 08:30:34;;;;;;;30.10;21.27;;;;;;;4.10;67.74;100934.30;1679599;83;20993;-62
2021/11/25 08:33:01;;;;;;;29.47;21.17;;;;;;;4.15;67.62;100940.02;1674793;83;22309;-63
2021/11/25 08:35:29;;;;;;;31.43;20.53;;;;;;;4.12;67.65;100938.13;1688427;83;21022;-62
2021/11/25 08:37:59;;;;;;;28.97;20.60;;;;;;;4.08;67.76;100933.59;1677943;83;21031;-62
2021/11/25 08:40:25;;;;;;;32.53;20.03;;;;;;;4.08;67.78;100929.64;1678129;83;21177;-63
2021/11/25 08:42:51;;;;;;;32.33;19.27;;;;;;;4.10;67.77;100933.80;1690890;83;21498;-63
2021/11/25 08:45:18;;;;;;;;;;;;;;;4.20;67.60;100927.73;1696267;83;20949;-61
2021/11/25 08:47:45;;;;;;;26.50;19.75;;;;;;;4.28;67.23;100928.76;1709055;82;20199;-62
2021/11/25 08:50:14;;;;;;;28.20;21.35;;;;;;;4.21;67.44;100924.97;1707650;82;21010;-63
2021/11/25 08:52:42;;;;;;;32.47;19.30;;;;;;;4.20;67.52;100914.55;1703852;82;21098;-62
2021/11/25 08:55:10;;;;;;;33.70;21.47;;;;;;;4.22;67.42;100912.60;1706715;82;20932;-63
2021/11/25 08:57:39;;;;;;;28.03;20.50;;;;;;;4.21;67.24;100912.27;1660622;84;21609;-63
2021/11/25 09:00:09;;;;;;;31.97;20.90;;;;;;;4.21;67.28;100910.45;1665625;84;21065;-64
2021/11/25 09:02:36;;;;;;;26.67;19.60;;;;;;;4.21;67.42;100911.78;1667135;84;21088;-64
2021/11/25 09:05:05;;;;;;;31.02;20.65;;;;;;;4.32;67.17;100911.34;1671903;84;21086;-64
2021/11/25 09:07:32;;;;;;;34.93;22.37;;;;;;;4.35;66.88;100904.00;1671066;84;21087;-63
2021/11/25 09:09:59;;;;;;;31.17;20.50;;;;;;;4.31;67.08;100897.78;1667798;84;21141;-64
2021/11/25 09:12:26;;;;;;;26.55;20.68;;;;;;;4.32;67.26;100899.47;1682511;83;21514;-63
2021/11/25 09:14:52;;;;;;;33.20;22.17;;;;;;;4.33;67.10;100891.88;1684648;83;21088;-64
2021/11/25 09:17:20;;;;;;;26.80;21.77;;;;;;;4.32;67.02;100888.42;1679632;83;21052;-63
2021/11/25 09:19:47;;;;;;;;;;;;;;;4.28;66.99;100887.02;1696705;83;21456;-62
2021/11/25 09:22:15;;;;;;;28.27;19.70;;;;;;;4.29;67.09;100883.40;1694556;83;20435;-63
2021/11/25 09:24:43;;;;;;;27.87;21.57;;;;;;;4.33;67.08;100884.80;1694720;83;20996;-64
2021/11/25 09:27:09;;;;;;;45.70;22.97;;;;;;;4.36;66.88;100883.22;1681114;83;21024;-62
2021/11/25 09:29:36;;;;;;;28.37;20.27;;;;;;;4.38;66.90;100885.73;1684334;83;21031;-64
2021/11/25 09:32:06;;;;;;;25.37;20.67;;;;;;;4.37;66.81;100878.30;1686202;83;21015;-63
2021/11/25 09:34:33;;;;;;;28.23;20.70;;;;;;;4.38;66.63;100873.36;1693620;83;21038;-65
2021/11/25 09:36:59;;;;;;;;;;;;;;;4.42;66.72;100876.56;1697726;83;21044;-65
2021/11/25 09:39:26;;;;;;;36.07;22.53;;;;;;;4.32;66.62;100854.11;1682751;83;21067;-64
2021/11/25 09:41:55;;;;;;;33.23;22.02;;;;;;;4.51;66.37;100876.25;1695067;83;21084;-63
2021/11/25 09:44:22;;;;;;;29.57;22.43;;;;;;;4.56;66.24;100870.91;1691837;81;21030;-62
2021/11/25 09:46:57;;;;;;;28.27;22.17;;;;;;;4.55;66.14;100874.51;1672017;84;21070;-63
2021/11/25 09:49:26;;;;;;;30.00;21.40;;;;;;;4.54;65.98;100878.14;1672278;86;21042;-63
2021/11/25 09:51:55;;;;;;;29.93;22.37;;;;;;;4.56;66.12;100864.31;1669582;84;21019;-65
2021/11/25 09:54:22;;;;;;;27.70;21.23;;;;;;;4.60;65.97;100868.34;1669501;84;21023;-64
2021/11/25 09:56:51;;;;;;;30.23;21.07;;;;;;;4.61;65.81;100864.72;1689483;82;21166;-66
2021/11/25 09:59:18;;;;;;;26.57;20.40;;;;;;;4.61;65.80;100860.75;1708652;82;21554;-64
2021/11/25 10:01:45;;;;;;;30.80;20.57;;;;;;;4.63;65.75;100860.63;1687777;82;21055;-66
2021/11/25 10:04:12;;;;;;;23.60;19.48;;;;;;;4.73;65.56;100859.31;1686483;84;21559;-65
2021/11/25 10:06:57;;;;;;;23.33;18.47;;;;;;;4.72;65.46;100857.16;1672104;84;21654;-64
2021/11/25 10:09:35;;;;;;;26.00;20.87;;;;;;;4.71;65.41;100855.52;1674475;84;21031;-66
2021/11/25 10:12:22;;;;;;;31.17;22.17;;;;;;;4.74;65.33;100849.11;1663394;84;20978;-65
2021/11/25 10:14:49;;;;;;;30.10;21.42;;;;;;;4.75;65.08;100844.19;1664794;84;20986;-66
2021/11/25 10:17:15;;;;;;;30.52;20.17;;;;;;;4.77;65.04;100837.78;1626001;85;21034;-65
2021/11/25 10:19:41;;;;;;;;;;;;;;;4.78;64.62;100834.16;1673744;84;21553;-65
2021/11/25 10:22:11;;;;;;;22.83;20.30;;;;;;;4.80;64.71;100834.02;1664969;84;20456;-67
2021/11/25 10:24:44;;;;;;;26.93;19.17;;;;;;;4.79;64.47;100825.77;1678368;83;21046;-65
2021/11/25 10:27:26;;;;;;;26.33;19.13;;;;;;;4.89;64.50;100825.27;1657391;84;21003;-68
2021/11/25 10:30:12;;;;;;;32.67;22.93;;;;;;;4.93;64.26;100819.22;1657714;85;21018;-65
2021/11/25 10:32:40;;;;;;;29.73;22.47;;;;;;;4.90;64.38;100818.17;1669008;85;21142;-63
2021/11/25 10:35:31;;;;;;;48.73;25.53;;;;;;;4.87;64.21;100814.83;1671385;85;21038;-64
2021/11/25 10:38:22;;;;;;;38.90;24.12;;;;;;;4.86;64.40;100807.08;1668358;85;21039;-64
2021/11/25 10:40:30;;;;;;;28.87;21.57;;;;;;;4.84;64.29;100803.25;1677345;85;21208;-65
2021/11/25 10:42:59;;;;;;;34.13;23.03;;;;;;;4.84;64.41;100799.28;1680623;85;21027;-65
2021/11/25 10:45:26;;;;;;;30.33;22.40;;;;;;;4.88;64.51;100798.03;1678742;85;21189;-66
2021/11/25 10:48:04;;;;;;;29.97;22.23;;;;;;;4.88;64.45;100793.24;1679605;85;21111;-65
2021/11/25 10:50:35;;;;;;;27.23;20.33;;;;;;;4.92;64.51;100790.66;1653973;85;21019;-65
2021/11/25 10:53:06;;;;;;;27.40;21.60;;;;;;;5.03;64.40;100787.04;1670634;85;21106;-65
2021/11/25 10:55:38;;;;;;;27.13;21.73;;;;;;;5.06;64.19;100781.45;1662504;85;21538;-66
2021/11/25 10:58:06;;;;;;;26.13;21.03;;;;;;;5.02;64.25;100779.58;1677707;84;21035;-65
2021/11/25 11:00:40;;;;;;;26.03;21.80;;;;;;;5.01;64.23;100774.43;1676515;85;21074;-65
2021/11/25 11:03:22;;;;;;;29.80;21.73;;;;;;;5.02;64.31;100768.19;1676018;85;21630;-63
2021/11/25 11:06:03;;;;;;;30.00;20.85;;;;;;;5.04;64.18;100771.52;1674673;85;21031;-63
2021/11/25 11:08:42;;;;;;;28.23;21.07;;;;;;;5.04;63.92;100770.20;1680034;84;21015;-64
2021/11/25 11:11:10;;;;;;;29.13;22.97;;;;;;;5.02;63.94;100769.51;1653357;85;21030;-65
2021/11/25 11:13:59;;;;;;;29.43;20.60;;;;;;;4.98;63.86;100757.06;1667125;85;21101;-64
2021/11/25 11:18:57;;;;;;;27.30;21.20;;;;;;;5.04;63.65;100749.06;1665159;85;21538;-65
2021/11/25 11:21:49;;;;;;;22.50;18.30;;;;;;;5.05;63.68;100748.09;1670890;85;21102;-65
2021/11/25 11:24:26;;;;;;;23.07;18.07;;;;;;;5.11;63.25;100739.59;1676882;84;21625;-63
2021/11/25 11:26:59;;;;;;;22.67;18.80;;;;;;;5.21;63.15;100738.23;1681785;84;21146;-62
2021/11/25 11:29:29;;;;;;;26.37;20.70;;;;;;;5.22;62.52;100735.45;1682854;84;21514;-65
2021/11/25 11:32:02;;;;;;;26.77;20.23;;;;;;;5.20;62.54;100738.73;1683815;84;21036;-65
2021/11/25 11:34:30;;;;;;;22.83;18.87;;;;;;;5.10;61.94;100727.34;1677176;83;21217;-65
2021/11/25 11:36:59;;;;;;;27.23;22.07;;;;;;;5.09;62.37;100731.47;1689453;84;21085;-65